LFLB

Chambéry

Airport
ICAO code
LFLB
Summary
ICAO Region
EUR
ICAO Territory
Location

Voglans, La Motte-Servolex, Le Bourget-du-Lac, Viviers-du-Lac,

Coordinates
45° 38' 19" N , 5° 52' 52" E
Metar
Observation
LFLB 281900Z AUTO 18009KT 9999 -RA BKN052/// BKN068/// OVC086/// ///CB 14/12 Q1003 TEMPO VRB15G25KT 4000 RA BECMG SCT020 BKN050
Station
Chambery / Aix-Les-Bains
Date/Time
2022-09-28 19:00:00
Wind direction
180°
Wind speed
09 kts
Lowest cloud amount
broken clouds
Temperature
14°C
Dew point
12°C
Humidity
87%
QNH
1003 hPa
Weather condition
light rain

Description

Chambéry Airport or Chambéry-Savoie Airport, also known as Chambéry Aix-les-Bains Airport, is a small international airport near Chambéry, a commune in Savoie, France.

Climatology

Runways

Designator Length Width Surface Rops
18/36 2020 45 ASP Yes/Yes

Airport map

Aerial View

SKYbrary Partners:

Safety knowledge contributed by: